Time;durP1;ratioP1;P1;durP2;ratioP2;P2;SDS_P1;SDS_P2;PMS_P1;PMS_P2;Temp;Humidity;BMP_temperature;BMP_pressure;BME280_temperature;BME280_humidity;BME280_pressure;Samples;Min_cycle;Max_cycle;Signal;HPM_P1;HPM_P2
2021/11/03 00:01:35;;;;;;;;;;;3.50;99.90;;;;;;5075090;28;19935;-73
2021/11/03 00:04:01;;;;;;;;;;;3.60;99.90;;;;;;5073541;28;20497;-73
2021/11/03 00:06:29;;;;;;;;;;;3.70;99.90;;;;;;5073936;28;20015;-73
2021/11/03 00:08:57;;;;;;;;;;;3.70;99.90;;;;;;5073069;28;19924;-73
2021/11/03 00:11:24;;;;;;;;;;;3.60;99.90;;;;;;5074522;28;19953;-73
2021/11/03 00:13:52;;;;;;;;;;;3.60;99.90;;;;;;5073288;28;19946;-73
2021/11/03 00:16:19;;;;;;;;;;;3.60;99.90;;;;;;5074733;28;19924;-73
2021/11/03 00:18:45;;;;;;;;;;;3.60;99.90;;;;;;5074100;28;19924;-73
2021/11/03 00:21:12;;;;;;;;;;;3.60;99.90;;;;;;5072974;28;19925;-73
2021/11/03 00:23:39;;;;;;;;;;;3.50;99.90;;;;;;5074939;28;19925;-73
2021/11/03 00:26:05;;;;;;;;;;;3.50;99.90;;;;;;5073807;28;20007;-73
2021/11/03 00:28:32;;;;;;;;;;;3.50;99.90;;;;;;5073970;28;19991;-73
2021/11/03 00:31:00;;;;;;;;;;;3.60;99.90;;;;;;5071523;28;19924;-73
2021/11/03 00:33:29;;;;;;;;;;;3.60;99.90;;;;;;5074909;28;19931;-73
2021/11/03 00:35:56;;;;;;;;;;;3.60;99.90;;;;;;5073085;28;19972;-73
2021/11/03 00:38:23;;;;;;;;;;;3.60;99.90;;;;;;5073388;28;19931;-73
2021/11/03 00:40:49;;;;;;;;;;;3.60;99.90;;;;;;5072853;28;19932;-73
2021/11/03 00:43:16;;;;;;;;;;;3.50;99.90;;;;;;5074670;28;19925;-73
2021/11/03 00:45:42;;;;;;;;;;;3.40;99.90;;;;;;5072864;28;19924;-73
2021/11/03 00:48:11;;;;;;;;;;;3.30;99.90;;;;;;5074160;28;19925;-73
2021/11/03 00:50:38;;;;;;;;;;;3.30;99.90;;;;;;5072590;28;19928;-73
2021/11/03 00:53:05;;;;;;;;;;;3.20;99.90;;;;;;5074155;28;19924;-73
2021/11/03 00:55:32;;;;;;;;;;;3.20;99.90;;;;;;5072544;28;19924;-73
2021/11/03 00:57:58;;;;;;;;;;;3.20;99.90;;;;;;5072414;28;19924;-73
2021/11/03 01:00:25;;;;;;;;;;;3.10;99.90;;;;;;5071564;28;19924;-73
2021/11/03 01:02:52;;;;;;;;;;;3.10;99.90;;;;;;5074419;28;19925;-73
2021/11/03 01:05:21;;;;;;;;;;;3.10;99.90;;;;;;5071816;28;19947;-73
2021/11/03 01:07:48;;;;;;;;;;;3.10;99.90;;;;;;5074262;28;20353;-73
2021/11/03 01:10:15;;;;;;;;;;;3.10;99.90;;;;;;5072939;28;20383;-73
2021/11/03 01:12:43;;;;;;;;;;;3.10;99.90;;;;;;5073620;28;19976;-73
2021/11/03 01:15:11;;;;;;;;;;;3.20;99.90;;;;;;5072300;28;19924;-73
2021/11/03 01:17:38;;;;;;;;;;;3.10;99.90;;;;;;5073994;28;20019;-73
2021/11/03 01:20:06;;;;;;;;;;;3.10;99.90;;;;;;5071232;28;19928;-73
2021/11/03 01:22:34;;;;;;;;;;;3.10;99.90;;;;;;5074304;28;20379;-73
2021/11/03 01:25:01;;;;;;;;;;;3.10;99.90;;;;;;5068768;28;20306;-73
2021/11/03 01:27:27;;;;;;;;;;;3.10;99.90;;;;;;5073639;28;19925;-73
2021/11/03 01:29:54;;;;;;;;;;;3.10;99.90;;;;;;5071588;28;19924;-73
2021/11/03 01:32:21;;;;;;;;;;;3.10;99.90;;;;;;5073793;28;20023;-73
2021/11/03 01:34:47;;;;;;;;;;;3.00;99.90;;;;;;5070662;28;19973;-72
2021/11/03 01:37:14;;;;;;;;;;;3.00;99.90;;;;;;5073357;28;19924;-73
2021/11/03 01:39:42;;;;;;;;;;;3.00;99.90;;;;;;5071092;28;20021;-73
2021/11/03 01:42:09;;;;;;;;;;;3.00;99.90;;;;;;5073641;28;20022;-73
2021/11/03 01:44:36;;;;;;;;;;;3.00;99.90;;;;;;5071510;28;19924;-73
2021/11/03 01:47:17;;;;;;;;;;;3.10;99.90;;;;;;5073480;28;19924;-72
2021/11/03 01:49:44;;;;;;;;;;;3.10;99.90;;;;;;5059534;28;19931;-73
2021/11/03 01:52:12;;;;;;;;;;;3.20;99.90;;;;;;5073419;28;20016;-73
2021/11/03 01:54:40;;;;;;;;;;;3.20;99.90;;;;;;5071313;28;20499;-72
2021/11/03 01:57:11;;;;;;;;;;;3.10;99.90;;;;;;5073215;28;19924;-73
2021/11/03 01:59:40;;;;;;;;;;;3.00;99.90;;;;;;5070281;28;20024;-73
2021/11/03 02:02:07;;;;;;;;;;;3.00;99.90;;;;;;5073248;28;20446;-72
2021/11/03 02:04:34;;;;;;;;;;;3.00;99.90;;;;;;5070605;28;19924;-73
2021/11/03 02:07:03;;;;;;;;;;;3.00;99.90;;;;;;5073270;28;20410;-73
2021/11/03 02:09:30;;;;;;;;;;;2.90;99.90;;;;;;5071639;28;19925;-73
2021/11/03 02:11:56;;;;;;;;;;;3.00;99.90;;;;;;5071440;28;19931;-73
2021/11/03 02:14:24;;;;;;;;;;;3.00;99.90;;;;;;5071542;28;19925;-73
2021/11/03 02:16:53;;;;;;;;;;;3.00;99.90;;;;;;5073108;28;19953;-73
2021/11/03 02:19:22;;;;;;;;;;;3.10;99.90;;;;;;5068619;28;20350;-73
2021/11/03 02:21:51;;;;;;;;;;;3.10;99.90;;;;;;5071444;28;19924;-73
2021/11/03 02:24:22;;;;;;;;;;;3.20;99.90;;;;;;5057154;28;19924;-73
2021/11/03 02:26:50;;;;;;;;;;;3.10;99.90;;;;;;5069889;28;19932;-73
2021/11/03 02:29:20;;;;;;;;;;;3.10;99.90;;;;;;5071179;28;19924;-73
2021/11/03 02:31:49;;;;;;;;;;;3.10;99.90;;;;;;5071220;28;19924;-73
2021/11/03 02:34:18;;;;;;;;;;;3.20;99.90;;;;;;5070810;28;19929;-72
2021/11/03 02:36:53;;;;;;;;;;;3.30;99.90;;;;;;5072293;28;19925;-73
2021/11/03 02:39:22;;;;;;;;;;;3.50;99.90;;;;;;5070854;28;20002;-73
2021/11/03 02:41:50;;;;;;;;;;;3.60;99.90;;;;;;5071099;28;19924;-73
2021/11/03 02:44:16;;;;;;;;;;;3.70;99.90;;;;;;5071003;28;19924;-73
2021/11/03 02:46:43;;;;;;;;;;;3.80;99.90;;;;;;5072359;28;20466;-73
2021/11/03 02:49:10;;;;;;;;;;;3.90;99.90;;;;;;5069198;28;19924;-73
2021/11/03 02:51:37;;;;;;;;;;;3.90;99.90;;;;;;5072697;28;19925;-73
2021/11/03 02:54:07;;;;;;;;;;;3.80;99.90;;;;;;5070650;28;19928;-73
2021/11/03 02:56:35;;;;;;;;;;;3.80;99.90;;;;;;5072405;28;20302;-73
2021/11/03 02:59:03;;;;;;;;;;;3.70;99.90;;;;;;5070363;28;19928;-73
2021/11/03 03:01:31;;;;;;;;;;;3.80;99.90;;;;;;5070613;28;19924;-73
2021/11/03 03:03:58;;;;;;;;;;;3.90;99.90;;;;;;5069889;28;20024;-73
2021/11/03 03:06:26;;;;;;;;;;;3.80;99.90;;;;;;5071937;28;19924;-73
2021/11/03 03:08:54;;;;;;;;;;;3.80;99.90;;;;;;5070302;28;19924;-73
2021/11/03 03:11:21;;;;;;;;;;;3.70;99.90;;;;;;5071565;28;19925;-73
2021/11/03 03:13:49;;;;;;;;;;;3.60;99.90;;;;;;5069199;28;19924;-73
2021/11/03 03:16:17;;;;;;;;;;;3.70;99.90;;;;;;5055554;28;20376;-73
2021/11/03 03:18:44;;;;;;;;;;;3.60;99.90;;;;;;5055883;28;19925;-73
2021/11/03 03:21:11;;;;;;;;;;;3.60;99.90;;;;;;5075165;28;19924;-73
2021/11/03 03:23:38;;;;;;;;;;;3.60;99.90;;;;;;5074024;28;19943;-73
2021/11/03 03:26:07;;;;;;;;;;;3.60;99.90;;;;;;5074736;28;19925;-73
2021/11/03 03:28:34;;;;;;;;;;;3.60;99.90;;;;;;5075660;28;20014;-73
2021/11/03 03:31:00;;;;;;;;;;;3.60;99.90;;;;;;5074845;28;19924;-72
2021/11/03 03:33:29;;;;;;;;;;;3.60;99.90;;;;;;5075930;28;19925;-73
2021/11/03 03:35:55;;;;;;;;;;;3.70;99.90;;;;;;5074024;28;19986;-73
2021/11/03 03:38:22;;;;;;;;;;;3.80;99.90;;;;;;5075859;28;19928;-73
2021/11/03 03:40:49;;;;;;;;;;;3.80;99.90;;;;;;5073371;28;19931;-73
2021/11/03 03:43:15;;;;;;;;;;;3.80;99.90;;;;;;5074157;28;19931;-70
2021/11/03 03:45:42;;;;;;;;;;;3.80;99.90;;;;;;5072839;28;19924;-71
2021/11/03 03:48:09;;;;;;;;;;;3.80;99.90;;;;;;5075855;28;20031;-73
2021/11/03 03:50:37;;;;;;;;;;;3.70;99.90;;;;;;5073826;28;19931;-73
2021/11/03 03:53:04;;;;;;;;;;;3.80;99.90;;;;;;5074315;28;19945;-71
2021/11/03 03:55:31;;;;;;;;;;;3.80;99.90;;;;;;5073616;28;20299;-73
2021/11/03 03:57:58;;;;;;;;;;;3.80;99.90;;;;;;5075215;28;20370;-73
2021/11/03 04:00:25;;;;;;;;;;;3.80;99.90;;;;;;5073878;28;19925;-73
2021/11/03 04:02:52;;;;;;;;;;;3.70;99.90;;;;;;5075310;28;20288;-73
2021/11/03 04:05:19;;;;;;;;;;;3.70;99.90;;;;;;5072880;28;19931;-73
2021/11/03 04:07:48;;;;;;;;;;;3.70;99.90;;;;;;5072708;28;20430;-73
2021/11/03 04:10:15;;;;;;;;;;;3.60;99.90;;;;;;5073053;28;19925;-73
2021/11/03 04:12:42;;;;;;;;;;;3.60;99.90;;;;;;5074742;28;19924;-73
2021/11/03 04:15:09;;;;;;;;;;;3.60;99.90;;;;;;5072853;28;19924;-72
2021/11/03 04:17:36;;;;;;;;;;;3.60;99.90;;;;;;5075033;28;19947;-73
2021/11/03 04:20:03;;;;;;;;;;;3.60;99.90;;;;;;5073363;28;20011;-73
2021/11/03 04:22:30;;;;;;;;;;;3.50;99.90;;;;;;5075298;28;20033;-73
2021/11/03 04:24:58;;;;;;;;;;;3.50;99.90;;;;;;5072809;28;19929;-73
2021/11/03 04:27:24;;;;;;;;;;;3.50;99.90;;;;;;5074217;28;19931;-73
2021/11/03 04:29:51;;;;;;;;;;;3.50;99.90;;;;;;5073187;28;20272;-72
2021/11/03 04:32:18;;;;;;;;;;;3.50;99.90;;;;;;5074958;28;19925;-73
2021/11/03 04:34:45;;;;;;;;;;;3.50;99.90;;;;;;5073255;28;20438;-73
2021/11/03 04:37:11;;;;;;;;;;;3.60;99.90;;;;;;5074670;28;19924;-73
2021/11/03 04:39:38;;;;;;;;;;;3.60;99.90;;;;;;5072648;28;20351;-73
2021/11/03 04:42:06;;;;;;;;;;;3.50;99.90;;;;;;5074574;28;19925;-73
2021/11/03 04:44:33;;;;;;;;;;;3.50;99.90;;;;;;5071823;28;19931;-73
2021/11/03 04:47:00;;;;;;;;;;;3.50;99.90;;;;;;5074595;28;20008;-73
2021/11/03 04:49:26;;;;;;;;;;;3.40;99.90;;;;;;5072817;28;19929;-73
2021/11/03 04:51:53;;;;;;;;;;;3.40;99.90;;;;;;5075049;28;19924;-73
2021/11/03 04:54:20;;;;;;;;;;;3.40;99.90;;;;;;5072897;28;19925;-74
2021/11/03 04:56:46;;;;;;;;;;;3.30;99.90;;;;;;5074438;28;20028;-73
2021/11/03 04:59:14;;;;;;;;;;;3.30;99.90;;;;;;5071398;28;19924;-73
2021/11/03 05:01:41;;;;;;;;;;;3.30;99.90;;;;;;5074339;28;19924;-73
2021/11/03 05:04:08;;;;;;;;;;;3.30;99.90;;;;;;5072185;28;19925;-73
2021/11/03 05:06:37;;;;;;;;;;;3.40;99.90;;;;;;5074057;28;19968;-73
2021/11/03 05:09:05;;;;;;;;;;;3.30;99.90;;;;;;5072475;28;19932;-72
2021/11/03 05:11:31;;;;;;;;;;;3.40;99.90;;;;;;5072732;28;19924;-72
2021/11/03 05:13:58;;;;;;;;;;;3.40;99.90;;;;;;5072743;28;19924;-73
2021/11/03 05:16:27;;;;;;;;;;;3.40;99.90;;;;;;5073890;28;20261;-72
2021/11/03 05:18:54;;;;;;;;;;;3.40;99.90;;;;;;5071980;28;19924;-73
2021/11/03 05:21:21;;;;;;;;;;;3.40;99.90;;;;;;5073490;28;19924;-73
2021/11/03 05:23:48;;;;;;;;;;;3.40;99.90;;;;;;5072267;28;19924;-73
2021/11/03 05:26:16;;;;;;;;;;;3.30;99.90;;;;;;5072696;28;20399;-73
2021/11/03 05:28:46;;;;;;;;;;;3.40;99.90;;;;;;5071897;28;19978;-73
2021/11/03 05:31:13;;;;;;;;;;;3.40;99.90;;;;;;5072831;28;20391;-72
2021/11/03 05:33:41;;;;;;;;;;;3.40;99.90;;;;;;5073213;28;20376;-73
2021/11/03 05:36:08;;;;;;;;;;;3.40;99.90;;;;;;5071735;28;19930;-73
2021/11/03 05:38:34;;;;;;;;;;;3.40;99.90;;;;;;5070057;28;20299;-73
2021/11/03 05:41:01;;;;;;;;;;;3.40;99.90;;;;;;5071738;28;19925;-72
2021/11/03 05:43:28;;;;;;;;;;;3.50;99.90;;;;;;5073765;28;19925;-73
2021/11/03 05:45:54;;;;;;;;;;;3.60;99.90;;;;;;5071800;28;19924;-73
2021/11/03 05:48:22;;;;;;;;;;;3.60;99.90;;;;;;5072892;28;19924;-72
2021/11/03 05:50:50;;;;;;;;;;;3.60;99.90;;;;;;5071482;28;19925;-73
2021/11/03 05:53:17;;;;;;;;;;;3.50;99.90;;;;;;5073342;28;20320;-73
2021/11/03 05:55:44;;;;;;;;;;;3.50;99.90;;;;;;5071301;28;19925;-73
2021/11/03 05:58:10;;;;;;;;;;;3.50;99.90;;;;;;5071776;28;19924;-73
2021/11/03 06:00:38;;;;;;;;;;;3.40;99.90;;;;;;5069874;28;19928;-73
2021/11/03 06:03:05;;;;;;;;;;;3.40;99.90;;;;;;5073283;28;20302;-72
2021/11/03 06:05:32;;;;;;;;;;;3.40;99.90;;;;;;5070868;28;19924;-73
2021/11/03 06:08:00;;;;;;;;;;;3.50;99.90;;;;;;5071177;28;19925;-73
2021/11/03 06:10:30;;;;;;;;;;;3.50;99.90;;;;;;5071239;28;19924;-72
2021/11/03 06:12:58;;;;;;;;;;;3.40;99.90;;;;;;5072224;28;19924;-72
2021/11/03 06:15:27;;;;;;;;;;;3.40;99.90;;;;;;5071034;28;19960;-73
2021/11/03 06:17:54;;;;;;;;;;;3.40;99.90;;;;;;5070995;28;20330;-73
2021/11/03 06:20:20;;;;;;;;;;;3.30;99.90;;;;;;5069874;28;20417;-73
2021/11/03 06:22:47;;;;;;;;;;;3.30;99.90;;;;;;5072451;28;20414;-73
2021/11/03 06:25:18;;;;;;;;;;;3.20;99.90;;;;;;5059024;28;19931;-73
2021/11/03 06:27:45;;;;;;;;;;;3.30;99.90;;;;;;5062933;28;19925;-73
2021/11/03 06:30:13;;;;;;;;;;;3.30;99.90;;;;;;5069812;28;19924;-73
2021/11/03 06:32:40;;;;;;;;;;;3.30;99.90;;;;;;5072567;28;19925;-73
2021/11/03 06:35:07;;;;;;;;;;;3.30;99.90;;;;;;5070878;28;20005;-73
2021/11/03 06:37:34;;;;;;;;;;;3.30;99.90;;;;;;5071264;28;19924;-73
2021/11/03 06:40:01;;;;;;;;;;;3.30;99.90;;;;;;5070598;28;19931;-73
2021/11/03 06:42:29;;;;;;;;;;;3.30;99.90;;;;;;5072448;28;20326;-72
2021/11/03 06:44:55;;;;;;;;;;;3.30;99.90;;;;;;5070040;28;20397;-73
2021/11/03 06:47:22;;;;;;;;;;;3.40;99.90;;;;;;5072224;28;19925;-73
2021/11/03 06:49:48;;;;;;;;;;;3.40;99.90;;;;;;5070405;28;19925;-73
2021/11/03 06:52:15;;;;;;;;;;;3.30;99.90;;;;;;5072439;28;19924;-73
2021/11/03 06:54:42;;;;;;;;;;;3.30;99.90;;;;;;5071045;28;19931;-72
2021/11/03 06:57:09;;;;;;;;;;;3.20;99.90;;;;;;5072762;28;19931;-73
2021/11/03 06:59:39;;;;;;;;;;;3.30;99.90;;;;;;5067818;28;20375;-72
2021/11/03 07:02:08;;;;;;;;;;;3.40;99.90;;;;;;5070690;28;20719;-73
2021/11/03 07:04:35;;;;;;;;;;;3.40;99.90;;;;;;5070005;28;19924;-72
2021/11/03 07:07:02;;;;;;;;;;;3.40;99.90;;;;;;5071752;28;19931;-72
2021/11/03 07:09:28;;;;;;;;;;;3.40;99.90;;;;;;5064506;28;19925;-72
2021/11/03 07:11:55;;;;;;;;;;;3.50;99.90;;;;;;5051862;28;20364;-73
2021/11/03 07:14:22;;;;;;;;;;;3.50;99.90;;;;;;5060383;28;19928;-72
2021/11/03 07:16:51;;;;;;;;;;;3.70;99.90;;;;;;5071408;28;20015;-71
2021/11/03 07:19:18;;;;;;;;;;;3.80;99.90;;;;;;5069676;28;19971;-72
2021/11/03 07:21:44;;;;;;;;;;;3.90;99.90;;;;;;5071904;28;19931;-72
2021/11/03 07:24:12;;;;;;;;;;;4.00;99.90;;;;;;5070085;28;19929;-72
2021/11/03 07:26:39;;;;;;;;;;;4.10;99.90;;;;;;5071131;28;19925;-72
2021/11/03 07:29:06;;;;;;;;;;;4.10;99.90;;;;;;5070659;28;20439;-72
2021/11/03 07:31:33;;;;;;;;;;;4.20;99.90;;;;;;5072139;28;20323;-72
2021/11/03 07:34:01;;;;;;;;;;;4.30;99.90;;;;;;5069675;28;20682;-73
2021/11/03 07:36:27;;;;;;;;;;;4.30;99.90;;;;;;5071516;28;20019;-73
2021/11/03 07:38:54;;;;;;;;;;;4.40;99.90;;;;;;5070604;28;19975;-72
2021/11/03 07:41:21;;;;;;;;;;;4.50;99.90;;;;;;5066484;28;19975;-72
2021/11/03 07:43:50;;;;;;;;;;;4.60;99.90;;;;;;5070305;28;20413;-72
2021/11/03 07:46:17;;;;;;;;;;;4.60;99.90;;;;;;5070804;28;20322;-72
2021/11/03 07:48:44;;;;;;;;;;;4.70;99.90;;;;;;5071480;28;19993;-72
2021/11/03 07:51:13;;;;;;;;;;;4.90;99.90;;;;;;5069630;28;20379;-73
2021/11/03 07:53:41;;;;;;;;;;;4.90;99.90;;;;;;5070895;28;20411;-71
2021/11/03 07:56:09;;;;;;;;;;;5.00;99.90;;;;;;5069955;28;19994;-72
2021/11/03 07:58:36;;;;;;;;;;;5.10;99.90;;;;;;5071266;28;19931;-73
2021/11/03 08:01:03;;;;;;;;;;;5.20;99.90;;;;;;5067791;28;19925;-72
2021/11/03 08:03:30;;;;;;;;;;;5.40;99.90;;;;;;5074923;28;19930;-71
2021/11/03 08:05:57;;;;;;;;;;;5.70;99.90;;;;;;5073780;28;19924;-72
2021/11/03 08:08:29;;;;;;;;;;;6.10;99.90;;;;;;5075072;28;19930;-72
2021/11/03 08:10:56;;;;;;;;;;;6.50;99.90;;;;;;5072676;28;19925;-72
2021/11/03 08:13:25;;;;;;;;;;;6.50;99.90;;;;;;5074650;28;19924;-72
2021/11/03 08:15:54;;;;;;;;;;;6.20;99.90;;;;;;5074054;28;20027;-73
2021/11/03 08:18:23;;;;;;;;;;;6.10;99.90;;;;;;5074205;28;19924;-72
2021/11/03 08:20:50;;;;;;;;;;;6.00;99.90;;;;;;5072034;28;20007;-73
2021/11/03 08:23:17;;;;;;;;;;;6.10;99.90;;;;;;5075024;28;19998;-73
2021/11/03 08:25:45;;;;;;;;;;;6.20;99.90;;;;;;5073375;28;19925;-73
2021/11/03 08:28:12;;;;;;;;;;;6.20;99.90;;;;;;5074788;28;19924;-73
2021/11/03 08:30:39;;;;;;;;;;;6.10;99.90;;;;;;5073175;28;19924;-73
2021/11/03 08:33:08;;;;;;;;;;;6.10;99.90;;;;;;5071186;28;19924;-73
2021/11/03 08:35:36;;;;;;;;;;;6.10;99.90;;;;;;5066920;28;19928;-73
2021/11/03 08:38:05;;;;;;;;;;;6.10;99.90;;;;;;5074660;28;19924;-73
2021/11/03 08:40:32;;;;;;;;;;;6.10;99.90;;;;;;5072258;28;20007;-73
2021/11/03 08:43:04;;;;;;;;;;;6.10;99.90;;;;;;5071729;28;20011;-73
2021/11/03 08:45:30;;;;;;;;;;;6.20;99.90;;;;;;5070087;28;20359;-73
2021/11/03 08:47:57;;;;;;;;;;;6.30;99.90;;;;;;5074131;28;20015;-73
2021/11/03 08:50:25;;;;;;;;;;;6.50;99.90;;;;;;5070536;28;19964;-73
2021/11/03 08:52:53;;;;;;;;;;;6.70;99.90;;;;;;5072944;28;19947;-72
2021/11/03 08:55:20;;;;;;;;;;;6.90;99.90;;;;;;5071611;28;19924;-73
2021/11/03 08:57:47;;;;;;;;;;;7.10;99.90;;;;;;5073696;28;19924;-73
2021/11/03 09:00:16;;;;;;;;;;;7.10;99.90;;;;;;5072094;28;20011;-73
2021/11/03 09:02:43;;;;;;;;;;;6.70;99.90;;;;;;5074003;28;19924;-73
2021/11/03 09:05:10;;;;;;;;;;;6.90;99.90;;;;;;5072174;28;19924;-73
2021/11/03 09:07:37;;;;;;;;;;;7.00;99.90;;;;;;5072851;28;20015;-73
2021/11/03 09:10:04;;;;;;;;;;;7.00;99.90;;;;;;5071753;28;19938;-73
2021/11/03 09:12:31;;;;;;;;;;;7.00;99.90;;;;;;5068227;28;19925;-73
2021/11/03 09:14:58;;;;;;;;;;;6.90;99.90;;;;;;5070720;28;19924;-72
2021/11/03 09:17:27;;;;;;;;;;;6.90;99.90;;;;;;5071718;28;20285;-73
2021/11/03 09:19:54;;;;;;;;;;;6.90;99.90;;;;;;5071838;28;19957;-74
2021/11/03 09:22:21;;;;;;;;;;;6.80;99.90;;;;;;5073003;28;19924;-73
2021/11/03 09:24:47;;;;;;;;;;;6.80;99.90;;;;;;5072085;28;19925;-73
2021/11/03 09:27:15;;;;;;;;;;;6.80;99.90;;;;;;5071811;28;20398;-73
2021/11/03 09:29:42;;;;;;;;;;;6.80;99.90;;;;;;5070652;28;19931;-73
2021/11/03 09:32:12;;;;;;;;;;;6.80;99.90;;;;;;5072990;28;19930;-73
2021/11/03 09:34:40;;;;;;;;;;;6.80;99.90;;;;;;5059756;28;19928;-73
2021/11/03 09:37:07;;;;;;;;;;;6.80;99.90;;;;;;5072056;28;19970;-74
2021/11/03 09:39:34;;;;;;;;;;;6.70;99.90;;;;;;5071268;28;19925;-73
2021/11/03 09:42:00;;;;;;;;;;;6.70;99.90;;;;;;5073037;28;19931;-73
2021/11/03 09:44:29;;;;;;;;;;;6.90;99.90;;;;;;5071461;28;19924;-73
2021/11/03 09:46:57;;;;;;;;;;;7.00;99.90;;;;;;5072916;28;20399;-73
2021/11/03 09:49:27;;;;;;;;;;;7.00;99.90;;;;;;5071195;28;19924;-73
2021/11/03 09:51:57;;;;;;;;;;;7.00;99.90;;;;;;5072757;28;19931;-73
2021/11/03 09:54:27;;;;;;;;;;;6.90;99.90;;;;;;5070209;28;19931;-73
2021/11/03 09:56:56;;;;;;;;;;;6.80;99.90;;;;;;5070834;28;20397;-73
2021/11/03 09:59:28;;;;;;;;;;;6.80;99.90;;;;;;5069007;28;19925;-73
2021/11/03 10:01:56;;;;;;;;;;;7.00;99.90;;;;;;5053033;28;20020;-73
2021/11/03 10:04:33;;;;;;;;;;;7.10;99.90;;;;;;5060107;28;19928;-72
2021/11/03 10:07:07;;;;;;;;;;;7.20;99.90;;;;;;5072214;28;19924;-73
2021/11/03 10:09:36;;;;;;;;;;;7.30;99.90;;;;;;5070338;28;19930;-72
2021/11/03 10:12:03;;;;;;;;;;;7.50;99.90;;;;;;5071070;28;19931;-73
2021/11/03 10:14:30;;;;;;;;;;;7.50;99.90;;;;;;5071112;28;20298;-73
2021/11/03 10:17:15;;;;;;;;;;;7.40;99.90;;;;;;5072884;28;20003;-72
2021/11/03 10:19:42;;;;;;;;;;;7.70;99.90;;;;;;5071403;28;19924;-73
2021/11/03 10:22:23;;;;;;;;;;;7.70;99.90;;;;;;5072042;28;19935;-72
2021/11/03 10:25:00;;;;;;;;;;;7.90;99.90;;;;;;5069568;28;20299;-72
2021/11/03 10:27:27;;;;;;;;;;;8.00;99.90;;;;;;5071701;28;20007;-73
2021/11/03 10:29:55;;;;;;;;;;;8.20;99.90;;;;;;5070569;28;19924;-73
2021/11/03 10:32:25;;;;;;;;;;;8.30;99.90;;;;;;5072296;28;20019;-73
2021/11/03 10:34:59;;;;;;;;;;;8.50;99.90;;;;;;5070265;28;19924;-74
2021/11/03 10:37:35;;;;;;;;;;;8.40;99.90;;;;;;5071870;28;20383;-74
2021/11/03 10:40:06;;;;;;;;;;;8.50;99.90;;;;;;5070290;28;19924;-74
2021/11/03 10:42:35;;;;;;;;;;;8.80;99.90;;;;;;5072286;28;19925;-74
2021/11/03 10:45:12;;;;;;;;;;;8.50;99.90;;;;;;5070327;28;19987;-73
2021/11/03 10:47:39;;;;;;;;;;;8.40;99.90;;;;;;5072102;28;19924;-73
2021/11/03 10:50:15;;;;;;;;;;;8.50;99.90;;;;;;5070151;28;19960;-74
2021/11/03 10:52:51;;;;;;;;;;;8.60;99.90;;;;;;5086711;28;20015;-74
2021/11/03 10:55:23;;;;;;;;;;;8.40;99.90;;;;;;5068474;28;19931;-74
2021/11/03 10:57:56;;;;;;;;;;;8.30;99.90;;;;;;5070408;28;19925;-74
2021/11/03 11:00:24;;;;;;;;;;;8.60;99.90;;;;;;5070490;28;20369;-74
2021/11/03 11:02:55;;;;;;;;;;;8.80;99.90;;;;;;5071956;28;20367;-74
2021/11/03 11:05:24;;;;;;;;;;;8.70;99.90;;;;;;5069423;28;19931;-75
2021/11/03 11:07:53;;;;;;;;;;;8.70;99.90;;;;;;5071642;28;20011;-73
2021/11/03 11:10:32;;;;;;;;;;;9.00;99.90;;;;;;5069967;28;19925;-72
2021/11/03 11:13:00;;;;;;;;;;;9.10;99.90;;;;;;5071633;28;19935;-72
2021/11/03 11:15:33;;;;;;;;;;;9.20;99.90;;;;;;5068581;28;20383;-72
2021/11/03 11:18:02;;;;;;;;;;;9.20;99.90;;;;;;5071641;28;19925;-72
2021/11/03 11:20:31;;;;;;;;;;;9.30;99.90;;;;;;5069855;28;19931;-72
2021/11/03 11:23:05;;;;;;;;;;;9.30;99.90;;;;;;5071721;28;19972;-72
2021/11/03 11:25:36;;;;;;;;;;;9.40;99.90;;;;;;5069585;28;19925;-72
2021/11/03 11:28:12;;;;;;;;;;;9.40;99.90;;;;;;5071329;28;19930;-72
2021/11/03 11:30:42;;;;;;;;;;;9.30;99.90;;;;;;5069217;28;19925;-72
2021/11/03 11:33:13;;;;;;;;;;;9.40;99.90;;;;;;5071796;28;19958;-72
2021/11/03 11:35:45;;;;;;;;;;;9.30;99.90;;;;;;5066619;28;19925;-72
2021/11/03 11:38:17;;;;;;;;;;;9.20;99.90;;;;;;5075297;28;20005;-72
2021/11/03 11:40:50;;;;;;;;;;;9.30;99.90;;;;;;5073686;28;19931;-72
2021/11/03 11:43:21;;;;;;;;;;;9.50;99.90;;;;;;5075357;28;19924;-72
2021/11/03 11:45:48;;;;;;;;;;;9.60;99.90;;;;;;5073302;28;20291;-73
2021/11/03 11:48:19;;;;;;;;;;;9.60;99.90;;;;;;5075115;28;19931;-72
2021/11/03 11:50:47;;;;;;;;;;;9.70;99.90;;;;;;5073575;28;20014;-72
2021/11/03 11:53:24;;;;;;;;;;;9.80;99.90;;;;;;5075208;28;19968;-73
2021/11/03 11:56:12;;;;;;;;;;;9.70;99.90;;;;;;5072228;28;19929;-72
2021/11/03 11:58:40;;;;;;;;;;;9.80;99.90;;;;;;5071680;28;19928;-73
2021/11/03 12:01:16;;;;;;;;;;;9.70;99.90;;;;;;5073961;28;19925;-73
2021/11/03 12:03:44;;;;;;;;;;;9.80;99.90;;;;;;5073883;28;19924;-73
2021/11/03 12:06:11;;;;;;;;;;;9.90;99.90;;;;;;5073946;28;20003;-71
2021/11/03 12:08:59;;;;;;;;;;;10.00;99.90;;;;;;5068636;28;19940;-72
2021/11/03 12:11:27;;;;;;;;;;;10.00;99.90;;;;;;5067853;28;19924;-72
2021/11/03 12:14:21;;;;;;;;;;;10.10;99.90;;;;;;5073064;28;19978;-72
2021/11/03 12:16:54;;;;;;;;;;;10.10;99.90;;;;;;5074473;28;19931;-72
2021/11/03 12:19:40;;;;;;;;;;;10.20;99.90;;;;;;5073100;28;19928;-72
2021/11/03 12:22:08;;;;;;;;;;;10.10;99.90;;;;;;5074855;28;19931;-72
2021/11/03 12:24:38;;;;;;;;;;;10.10;99.90;;;;;;5073139;28;19935;-72
2021/11/03 12:27:16;;;;;;;;;;;10.30;99.90;;;;;;5073420;28;20003;-72
2021/11/03 12:29:43;;;;;;;;;;;10.10;99.90;;;;;;5072891;28;19928;-72
2021/11/03 12:32:23;;;;;;;;;;;10.00;99.90;;;;;;5074293;28;19929;-72
2021/11/03 12:34:49;;;;;;;;;;;9.80;99.90;;;;;;5072841;28;19931;-73
2021/11/03 12:37:29;;;;;;;;;;;9.90;99.90;;;;;;5073762;28;20765;-72
2021/11/03 12:40:02;;;;;;;;;;;10.20;99.90;;;;;;5072709;28;19928;-72
2021/11/03 12:42:32;;;;;;;;;;;10.40;99.90;;;;;;5057870;28;19924;-72
2021/11/03 12:45:07;;;;;;;;;;;10.10;99.90;;;;;;5070703;28;19931;-72
2021/11/03 12:47:35;;;;;;;;;;;10.20;99.90;;;;;;5073054;28;19925;-72
2021/11/03 12:50:06;;;;;;;;;;;10.50;99.90;;;;;;5072310;28;19925;-72
2021/11/03 12:52:32;;;;;;;;;;;10.70;99.90;;;;;;5072541;28;20375;-72
2021/11/03 12:55:02;;;;;;;;;;;10.50;99.90;;;;;;5071520;28;19931;-72
2021/11/03 12:57:30;;;;;;;;;;;10.70;99.90;;;;;;5073765;28;19924;-73
2021/11/03 13:00:03;;;;;;;;;;;10.70;99.90;;;;;;5072096;28;19924;-72
2021/11/03 13:02:31;;;;;;;;;;;10.80;99.90;;;;;;5071546;28;19978;-72
2021/11/03 13:04:59;;;;;;;;;;;10.60;99.90;;;;;;5064815;28;19924;-72
2021/11/03 13:07:28;;;;;;;;;;;10.50;99.90;;;;;;5073296;28;20015;-72
2021/11/03 13:09:57;;;;;;;;;;;10.60;99.90;;;;;;5071609;28;19931;-72
2021/11/03 13:12:26;;;;;;;;;;;10.80;99.90;;;;;;5072899;28;19924;-72
2021/11/03 13:14:57;;;;;;;;;;;10.90;99.90;;;;;;5071613;28;19925;-72
2021/11/03 13:17:25;;;;;;;;;;;10.80;99.90;;;;;;5073784;28;20341;-72
2021/11/03 13:19:52;;;;;;;;;;;10.90;99.90;;;;;;5070869;28;19924;-73
2021/11/03 13:22:20;;;;;;;;;;;11.00;99.90;;;;;;5073081;28;19924;-72
2021/11/03 13:24:48;;;;;;;;;;;11.00;99.90;;;;;;5071823;28;20302;-72
2021/11/03 13:27:17;;;;;;;;;;;11.20;99.90;;;;;;5073658;28;20014;-71
2021/11/03 13:29:45;;;;;;;;;;;11.20;99.90;;;;;;5070277;28;19930;-71
2021/11/03 13:32:19;;;;;;;;;;;11.30;99.90;;;;;;5073253;28;19924;-71
2021/11/03 13:34:48;;;;;;;;;;;11.40;99.90;;;;;;5071648;28;19924;-71
2021/11/03 13:37:16;;;;;;;;;;;11.50;99.90;;;;;;5073009;28;20008;-71
2021/11/03 13:39:51;;;;;;;;;;;11.20;99.90;;;;;;5070351;28;20015;-72
2021/11/03 13:42:26;;;;;;;;;;;10.90;99.90;;;;;;5073574;28;19975;-72
2021/11/03 13:44:57;;;;;;;;;;;10.60;99.90;;;;;;5071292;28;19935;-72
2021/11/03 13:47:26;;;;;;;;;;;10.60;99.90;;;;;;5072570;28;19931;-72
2021/11/03 13:50:12;;;;;;;;;;;10.70;99.90;;;;;;5070858;28;19931;-72
2021/11/03 13:52:38;;;;;;;;;;;10.60;99.90;;;;;;5072662;28;20387;-72
2021/11/03 13:55:15;;;;;;;;;;;10.60;99.90;;;;;;5071074;28;19931;-72
2021/11/03 13:57:42;;;;;;;;;;;10.70;99.90;;;;;;5070557;28;19935;-72
2021/11/03 14:00:18;;;;;;;;;;;10.80;99.90;;;;;;5068958;28;19979;-72
2021/11/03 14:02:46;;;;;;;;;;;10.70;99.90;;;;;;5072722;28;19972;-72
2021/11/03 14:05:28;;;;;;;;;;;10.60;99.90;;;;;;5071343;28;19978;-71
2021/11/03 14:07:55;;;;;;;;;;;10.80;99.90;;;;;;5070344;28;19932;-72
2021/11/03 14:10:22;;;;;;;;;;;10.80;99.90;;;;;;5071960;28;19977;-73
2021/11/03 14:12:49;;;;;;;;;;;10.80;99.90;;;;;;5073228;28;19924;-73
2021/11/03 14:15:17;;;;;;;;;;;10.80;99.90;;;;;;5066712;28;19931;-73
2021/11/03 14:17:47;;;;;;;;;;;10.70;99.90;;;;;;5072010;28;19925;-73
2021/11/03 14:20:24;;;;;;;;;;;10.60;99.90;;;;;;5070194;28;20359;-73
2021/11/03 14:22:51;;;;;;;;;;;10.60;99.90;;;;;;5072687;28;19928;-73
2021/11/03 14:25:19;;;;;;;;;;;10.50;99.90;;;;;;5069360;28;19931;-73
2021/11/03 14:27:46;;;;;;;;;;;10.60;99.90;;;;;;5072305;28;19928;-74
2021/11/03 14:30:12;;;;;;;;;;;10.50;99.90;;;;;;5070917;28;20011;-73
2021/11/03 14:32:40;;;;;;;;;;;10.70;99.90;;;;;;5071645;28;19924;-73
2021/11/03 14:35:16;;;;;;;;;;;10.80;99.90;;;;;;5069432;28;19924;-73
2021/11/03 14:37:43;;;;;;;;;;;10.80;99.90;;;;;;5070430;28;19947;-72